Latest Weather Observations for Willis Island

IDQ60801

Issued at 12:01 pm EST Friday 28 August 2015 (issued every 30 minutes, with the page automatically refreshed every 10 minutes)

About weather observations | Map of weather stations | Latest weather observations for QLD | Other Formats
Station Details ID: 200283 Name: WILLIS ISLAND Lat: -16.29 Lon: 149.97 Height: 9.29 m
Data from the previous 72 hours. | See also: Recent months at Willis Island
Date/Time
EST
Temp
°C
App
Temp
°C
Dew
Point
Rel
Hum
%
Delta-T
°C
Wind Press
QNH
hPa
Press
MSL
hPa
Rain
since 9 am
mm
Dir
 
Spd
km/h
Gust
km/h
Spd
kts
Gust
kts
28/12:00pm 26.8 24.7 19.7 65 4.6 ESE 30 35 16 19 1017.3 - 0.0
28/11:30am 26.6 23.9 19.6 65 4.5 SE 33 37 18 20 1017.7 - 0.0
28/11:00am 26.0 23.1 18.8 64 4.6 SE 32 37 17 20 1018.1 - 0.0
28/10:30am 26.0 23.0 19.0 65 4.5 ESE 33 39 18 21 1018.6 - 0.0
28/10:00am 26.0 23.7 20.2 70 3.8 SE 32 35 17 19 1018.7 - 0.0
28/09:30am 25.8 23.6 20.3 71 3.6 ESE 32 37 17 20 1018.8 - 0.0
28/09:00am 25.4 22.9 19.7 70 3.7 ESE 32 37 17 20 1018.7 1018.7 0.0
28/08:30am 24.8 22.3 19.7 73 3.3 ESE 32 37 17 20 1018.5 - 0.0
28/08:00am 24.5 21.8 19.7 74 3.1 ESE 33 39 18 21 1018.2 - 0.0
28/07:30am 24.3 21.6 19.6 75 3.0 SE 33 37 18 20 1017.8 - 0.0
28/07:00am 24.0 21.4 19.8 77 2.7 ESE 33 39 18 21 1017.4 - 0.0
28/06:30am 23.9 21.1 19.5 76 2.8 ESE 33 37 18 20 1017.0 - 0.0
28/06:00am 23.5 22.0 20.3 82 2.1 ESE 28 32 15 17 1016.6 1016.6 0.0
28/05:30am 23.3 21.1 20.4 84 1.9 ESE 32 37 17 20 1016.2 - 0.0
28/05:00am 23.0 20.7 20.2 84 1.8 ESE 32 37 17 20 1016.2 - 0.0
28/04:30am 23.4 21.7 20.6 84 1.8 ESE 30 35 16 19 1015.9 - 0.0
28/04:00am 23.6 21.0 19.4 77 2.7 SE 32 37 17 20 1015.8 - 0.0
28/03:30am 23.5 20.4 18.9 75 2.9 ESE 33 39 18 21 1015.8 - 0.0
28/03:00am 23.6 20.9 19.2 76 2.8 ESE 32 35 17 19 1015.9 1015.9 0.0
28/02:30am 23.6 21.8 19.5 78 2.6 ESE 28 33 15 18 1016.0 - 0.0
28/02:00am 23.6 21.2 19.0 75 2.9 SE 30 33 16 18 1016.2 - 0.0
28/01:30am 23.8 20.8 19.1 75 3.0 ESE 33 39 18 21 1016.6 - 0.0
28/01:00am 23.7 21.1 20.0 80 2.4 SE 33 39 18 21 1017.0 - 0.0
28/12:30am 23.9 21.1 19.5 76 2.8 ESE 33 39 18 21 1017.4 - 0.0
28/12:00am 24.0 21.5 19.8 77 2.7 ESE 32 39 17 21 1017.7 1017.7 0.0
 
Date/Time
EST
Temp
°C
App
Temp
°C
Dew
Point
Rel
Hum
%
Delta-T
°C
Wind Press
QNH
hPa
Press
MSL
hPa
Rain
since 9 am
mm
Dir
 
Spd
km/h
Gust
km/h
Spd
kts
Gust
kts
27/11:30pm 24.1 21.2 19.2 74 3.1 ESE 33 39 18 21 1017.8 - 0.0
27/11:00pm 24.2 21.0 18.5 70 3.6 ESE 33 39 18 21 1018.0 - 0.0
27/10:30pm 24.4 21.0 19.1 72 3.4 SE 35 41 19 22 1018.1 - 0.0
27/10:00pm 24.3 21.3 19.1 73 3.3 SE 33 39 18 21 1018.2 - 0.0
27/09:30pm 24.3 20.9 18.9 72 3.4 SE 35 39 19 21 1018.2 - 0.0
27/09:00pm 24.3 21.7 19.5 74 3.1 SE 32 37 17 20 1018.1 1018.1 0.0
27/08:30pm 24.3 21.3 19.1 73 3.3 SE 33 39 18 21 1017.9 - 0.0
27/08:00pm 24.1 21.6 19.7 76 2.8 ESE 32 37 17 20 1017.8 - 0.0
27/07:30pm 24.0 21.4 19.5 76 2.9 SE 32 37 17 20 1017.5 - 0.0
27/07:00pm 24.0 20.4 18.6 72 3.4 ESE 35 39 19 21 1017.0 - 0.0
27/06:30pm 24.2 21.4 19.0 72 3.3 SE 32 37 17 20 1016.8 - 0.0
27/06:00pm 24.1 20.9 18.7 72 3.4 SE 33 39 18 21 1016.2 1016.2 0.0
27/05:30pm 24.3 21.0 18.4 69 3.7 ESE 33 39 18 21 1015.9 - 0.0
27/05:00pm 24.6 21.7 18.8 70 3.7 ESE 32 35 17 19 1015.7 - 0.0
27/04:30pm 25.0 21.8 18.2 66 4.3 ESE 32 35 17 19 1015.3 - 0.0
27/04:00pm 25.5 22.5 18.6 65 4.4 ESE 32 35 17 19 1015.2 - 0.0
27/03:30pm 25.9 23.4 18.9 65 4.5 ESE 30 33 16 18 1015.1 - 0.0
27/03:00pm 25.9 22.4 17.8 61 5.1 ESE 33 39 18 21 1015.1 1015.1 0.0
27/02:30pm 26.2 22.4 18.1 61 5.1 ESE 35 39 19 21 1015.1 - 0.0
27/02:00pm 26.7 23.4 18.4 60 5.3 ESE 33 37 18 20 1015.3 - 0.0
27/01:30pm 26.6 22.8 18.1 59 5.4 ESE 35 41 19 22 1015.8 - 0.0
27/01:00pm 26.6 22.6 17.5 57 5.7 ESE 35 41 19 22 1016.1 - 0.0
27/12:30pm 26.7 22.7 16.7 54 6.2 ESE 33 39 18 21 1016.6 - 0.0
27/12:00pm 26.9 23.5 18.2 59 5.5 ESE 33 37 18 20 1017.1 1017.1 0.0
27/11:30am 26.6 23.2 18.9 62 4.9 ESE 35 41 19 22 1017.5 - 0.0
27/11:00am 26.3 22.4 17.9 60 5.3 ESE 35 41 19 22 1017.8 - 0.0
27/10:30am 26.3 22.3 17.7 59 5.4 ESE 35 39 19 21 1018.1 - 0.0
27/10:00am 26.0 22.0 17.5 59 5.3 ESE 35 41 19 22 1018.3 - 0.0
27/09:30am 26.0 22.6 19.0 65 4.5 ESE 35 39 19 21 1018.4 - 0.0
27/09:00am 25.4 20.5 17.4 61 5.0 ESE 39 44 21 24 1018.4 1018.4 0.0
27/08:30am 25.3 20.7 17.1 60 5.1 ESE 37 44 20 24 1018.2 - 0.0
27/08:00am 24.9 20.9 18.6 68 4.0 ESE 37 43 20 23 1017.9 - 0.0
27/07:30am 24.2 20.0 18.1 68 3.8 ESE 37 43 20 23 1017.5 - 0.0
27/07:00am 23.9 19.8 18.3 71 3.5 ESE 37 43 20 23 1017.2 - 0.0
27/06:30am 23.8 19.7 19.1 75 3.0 ESE 39 46 21 25 1016.8 - 0.0
27/06:00am 23.7 20.1 18.6 73 3.2 ESE 35 43 19 23 1016.6 1016.6 0.0
27/05:30am 23.5 18.8 17.7 70 3.6 ESE 39 44 21 24 1016.4 - 0.0
27/05:00am 23.5 19.6 18.8 75 3.0 SE 37 44 20 24 1016.2 - 0.0
27/04:30am 23.4 20.2 19.5 79 2.5 ESE 35 43 19 23 1016.0 - 0.0
27/04:14am 23.1 18.9 19.8 82 2.1 E 41 46 22 25 1015.9 - 0.0
27/04:00am 23.7 20.7 19.0 75 3.0 SE 33 41 18 22 1015.8 - 0.0
27/03:30am 23.8 20.8 19.1 75 3.0 SE 33 37 18 20 1016.0 - 0.0
27/03:00am 23.8 20.6 19.4 76 2.8 SE 35 41 19 22 1016.0 1016.0 0.0
27/02:30am 23.7 21.0 19.3 76 2.8 ESE 32 37 17 20 1016.2 - 0.0
27/02:00am 23.2 20.3 19.3 79 2.5 ESE 33 39 18 21 1016.5 - 0.0
27/01:30am 23.2 20.1 19.6 80 2.3 ESE 35 43 19 23 1016.7 - 0.0
27/01:00am 23.9 20.7 18.7 72 3.3 ESE 33 39 18 21 1017.0 - 0.0
27/12:30am 23.7 21.5 19.5 77 2.7 ESE 30 35 16 19 1017.4 - 0.0
27/12:00am 23.7 21.1 19.6 78 2.6 ESE 32 37 17 20 1017.6 1017.6 0.0
 
Date/Time
EST
Temp
°C
App
Temp
°C
Dew
Point
Rel
Hum
%
Delta-T
°C
Wind Press
QNH
hPa
Press
MSL
hPa
Rain
since 9 am
mm
Dir
 
Spd
km/h
Gust
km/h
Spd
kts
Gust
kts
26/11:30pm 23.8 20.8 19.1 75 3.0 ESE 33 39 18 21 1018.0 - 0.0
26/11:00pm 24.2 21.6 19.5 75 3.0 SE 32 39 17 21 1018.1 - 0.0
26/10:30pm 24.1 21.6 18.9 72 3.3 ESE 30 35 16 19 1018.2 - 0.0
26/10:00pm 23.9 21.5 19.0 74 3.1 ESE 30 35 16 19 1018.0 - 0.0
26/09:30pm 24.0 21.8 19.5 76 2.9 ESE 30 35 16 19 1018.0 - 0.0
26/09:00pm 23.9 21.3 19.4 76 2.9 ESE 32 37 17 20 1017.9 1017.9 0.0
26/08:30pm 24.0 21.0 19.0 73 3.2 ESE 33 41 18 22 1017.8 - 0.0
26/08:00pm 24.0 21.1 18.8 72 3.3 ESE 32 37 17 20 1017.5 - 0.0
26/07:30pm 24.0 20.9 18.8 72 3.3 ESE 33 37 18 20 1017.3 - 0.0
26/07:00pm 24.2 21.5 19.2 73 3.2 ESE 32 37 17 20 1017.2 - 0.0
26/06:30pm 24.2 21.6 19.4 74 3.1 ESE 32 37 17 20 1016.7 - 0.0
26/06:00pm 24.2 21.2 18.7 71 3.5 ESE 32 39 17 21 1016.5 1016.5 0.0
26/05:30pm 24.3 21.3 17.7 66 4.1 ESE 30 33 16 18 1016.2 - 0.0
26/05:00pm 24.5 21.5 17.8 66 4.2 ESE 30 35 16 19 1016.0 - 0.0
26/04:30pm 25.1 22.3 18.3 66 4.3 E 30 39 16 21 1016.0 - 0.0
26/04:00pm 25.3 22.3 17.8 63 4.7 ESE 30 33 16 18 1016.1 - 0.0
26/03:30pm 25.5 22.2 17.1 59 5.2 ESE 30 33 16 18 1015.9 - 0.0
26/03:00pm 26.0 22.8 17.2 58 5.5 ESE 30 35 16 19 1016.0 1016.0 0.0
26/02:30pm 26.2 23.2 16.7 56 5.9 ESE 28 33 15 18 1016.2 - 0.0
26/02:00pm 26.4 23.9 18.0 60 5.3 E 28 30 15 16 1016.3 - 0.0
26/01:30pm 26.0 22.9 17.5 59 5.3 E 30 33 16 18 1016.5 - 0.0
26/01:00pm 26.4 23.0 17.8 59 5.4 E 32 37 17 20 1016.8 - 0.0
26/12:30pm 26.7 23.7 17.8 58 5.6 E 30 35 16 19 1017.3 - 0.0
26/12:00pm 26.0 22.3 17.0 57 5.6 E 32 35 17 19 1017.6 1017.6 0.0
26/11:30am 26.3 22.9 16.8 56 5.9 E 30 33 16 18 1018.1 - 0.0
26/11:00am 25.9 21.8 15.9 54 6.1 E 32 39 17 21 1018.5 - 0.0
26/10:30am 26.1 21.9 16.3 54 6.0 ESE 33 39 18 21 1018.9 - 0.0
26/10:00am 25.7 21.6 18.3 63 4.7 E 37 43 20 23 1019.1 - 0.0
26/09:30am 25.1 21.3 18.1 65 4.4 E 35 41 19 22 1019.1 - 0.0
26/09:20am 25.2 20.7 17.3 61 4.9 E 37 41 20 22 1019.0 - 0.0
26/09:00am 25.2 21.4 18.0 64 4.5 ESE 35 41 19 22 1019.1 1019.1 0.0
26/08:30am 24.2 20.9 18.0 68 3.9 SE 32 37 17 20 1018.9 - 0.0
26/08:00am 24.2 21.1 18.3 69 3.7 SE 32 39 17 21 1018.7 - 0.0
26/07:30am 23.5 20.2 17.0 67 4.0 ESE 30 33 16 18 1018.4 - 0.0
26/07:00am 23.4 20.1 17.9 71 3.4 SE 32 35 17 19 1018.2 - 0.0
26/06:30am 23.2 20.5 17.5 70 3.5 SE 28 33 15 18 1017.9 - 0.0
26/06:00am 23.0 20.0 17.7 72 3.3 SE 30 35 16 19 1017.6 1017.6 0.0
26/05:30am 22.9 19.8 17.4 71 3.4 ESE 30 35 16 19 1017.4 - 0.0
26/05:00am 23.1 20.1 17.8 72 3.3 ESE 30 35 16 19 1017.1 - 0.0
26/04:30am 23.1 20.5 17.8 72 3.3 SE 28 32 15 17 1017.0 - 0.0
26/04:00am 23.1 19.8 17.1 69 3.7 SE 30 32 16 17 1017.0 - 0.0
26/03:30am 23.2 19.8 17.7 71 3.4 SE 32 35 17 19 1017.1 - 0.0
26/03:00am 23.2 19.8 17.6 71 3.5 ESE 32 35 17 19 1017.1 1017.1 0.0
26/02:30am 23.3 20.4 18.0 72 3.3 ESE 30 33 16 18 1017.2 - 0.0
26/02:00am 23.2 20.6 17.7 71 3.4 ESE 28 32 15 17 1017.5 - 0.0
26/01:30am 23.3 20.4 18.0 72 3.3 ESE 30 33 16 18 1017.9 - 0.0
26/01:00am 23.3 20.3 17.7 71 3.5 ESE 30 33 16 18 1018.2 - 0.0
26/12:30am 23.4 21.3 18.1 72 3.3 SE 26 30 14 16 1018.6 - 0.0
26/12:00am 23.4 20.6 18.1 72 3.3 ESE 30 35 16 19 1018.6 1018.6 0.0
 
Date/Time
EST
Temp
°C
App
Temp
°C
Dew
Point
Rel
Hum
%
Delta-T
°C
Wind Press
QNH
hPa
Press
MSL
hPa
Rain
since 9 am
mm
Dir
 
Spd
km/h
Gust
km/h
Spd
kts
Gust
kts
25/11:30pm 23.5 21.4 18.9 75 2.9 ESE 28 32 15 17 1018.7 - 0.0
25/11:00pm 23.5 21.0 18.1 71 3.4 ESE 28 33 15 18 1018.8 - 0.0
25/10:30pm 23.5 21.1 18.2 72 3.3 ESE 28 33 15 18 1019.0 - 0.0
25/10:00pm 23.7 20.8 18.8 74 3.1 ESE 32 35 17 19 1019.1 - 0.0
25/09:30pm 23.8 21.2 18.7 73 3.2 ESE 30 33 16 18 1018.9 - 0.0
25/09:00pm 23.8 20.9 18.9 74 3.1 ESE 32 35 17 19 1018.9 1018.9 0.0
25/08:30pm 23.9 20.8 18.8 73 3.2 ESE 33 41 18 22 1018.6 - 0.0
25/08:00pm 23.8 21.3 18.9 74 3.1 SE 30 35 16 19 1018.5 - 0.0
25/07:30pm 23.9 21.6 19.4 76 2.9 ESE 30 35 16 19 1018.4 - 0.0
25/07:00pm 23.9 21.5 19.0 74 3.1 ESE 30 35 16 19 1017.8 - 0.0
25/06:30pm 24.0 21.7 19.3 75 3.0 ESE 30 35 16 19 1017.4 - 0.0
25/06:00pm 24.0 21.1 18.8 72 3.3 ESE 32 35 17 19 1017.1 1017.1 0.0
25/05:30pm 24.4 22.6 19.6 74 3.1 SE 28 33 15 18 1016.8 - 0.0
25/05:00pm 24.4 22.0 19.1 72 3.4 ESE 30 33 16 18 1016.6 - 0.0
25/04:30pm 24.8 22.6 18.8 69 3.8 ESE 28 33 15 18 1016.5 - 0.0
25/04:00pm 25.1 22.9 18.6 67 4.1 ESE 28 32 15 17 1016.5 - 0.0
25/03:30pm 25.4 22.6 18.1 64 4.6 ESE 30 33 16 18 1016.4 - 0.0
25/03:00pm 25.7 22.9 18.3 63 4.7 ESE 30 33 16 18 1016.5 1016.5 0.0
25/02:30pm 26.0 23.6 18.3 62 4.9 ESE 28 33 15 18 1016.7 - 0.0
25/02:00pm 26.2 23.6 18.7 63 4.8 ESE 30 32 16 17 1017.0 - 0.0
25/01:30pm 26.4 23.7 18.5 62 5.0 ESE 30 33 16 18 1017.4 - 0.0
25/01:00pm 26.3 24.0 18.4 61 5.0 ESE 28 32 15 17 1017.7 - 0.0
25/12:30pm 26.2 23.9 18.5 62 4.9 ESE 28 33 15 18 1018.0 - 0.0

Other Formats:

Comma delimited format used in spreadsheet applications
http://www.bom.gov.au/fwo/IDQ60801/IDQ60801.94299.axf

JavaScript Object Notation format (JSON) in row-major order
http://www.bom.gov.au/fwo/IDQ60801/IDQ60801.94299.json